createdAt,value
2022-08-17T00:05:26.870Z,81.54
2022-08-17T00:15:29.703Z,81.67
2022-08-17T00:25:34.257Z,82.04
2022-08-17T00:35:36.971Z,81.92
2022-08-17T00:45:41.008Z,82.39
2022-08-17T00:55:46.307Z,82.32
2022-08-17T01:05:53.875Z,82.19
2022-08-17T01:16:00.127Z,82.32
2022-08-17T01:26:06.263Z,82.10
2022-08-17T01:36:09.719Z,82.20
2022-08-17T01:46:18.013Z,83.14
2022-08-17T01:56:24.033Z,82.83
2022-08-17T02:06:29.433Z,83.35
2022-08-17T02:16:36.806Z,83.80
2022-08-17T02:26:41.685Z,84.56
2022-08-17T02:36:44.460Z,84.77
2022-08-17T02:46:48.586Z,84.78
2022-08-17T02:56:51.344Z,85.47
2022-08-17T03:06:55.500Z,85.71
2022-08-17T03:16:59.814Z,86.60
2022-08-17T03:27:03.922Z,86.64
2022-08-17T03:37:06.771Z,87.12
2022-08-17T03:47:27.713Z,86.79
2022-08-17T03:57:31.392Z,87.23
2022-08-17T04:07:35.413Z,87.21
2022-08-17T04:17:38.076Z,87.37
2022-08-17T04:27:42.157Z,87.27
2022-08-17T04:37:46.251Z,87.54
2022-08-17T04:47:50.263Z,87.55
2022-08-17T04:57:52.996Z,87.68
2022-08-17T05:07:59.605Z,87.67
2022-08-17T05:18:02.473Z,88.33
2022-08-17T05:28:07.386Z,88.24
2022-08-17T05:38:10.286Z,88.38
2022-08-17T05:48:14.684Z,87.99
2022-08-17T05:58:26.233Z,88.42
2022-08-17T06:08:37.727Z,88.21
2022-08-17T06:18:45.781Z,89.34
2022-08-17T06:28:54.013Z,89.65
2022-08-17T06:39:10.354Z,92.44
2022-08-17T06:49:21.804Z,92.50
2022-08-17T06:59:54.176Z,91.85
2022-08-17T07:10:01.773Z,92.35
2022-08-17T07:20:08.498Z,92.63
2022-08-17T07:30:19.275Z,92.36
2022-08-17T07:40:28.891Z,91.78
2022-08-17T07:50:33.741Z,91.08
2022-08-17T08:00:37.166Z,90.77
2022-08-17T08:10:45.386Z,89.79
2022-08-17T08:20:53.858Z,88.57
2022-08-17T08:31:05.059Z,87.68
2022-08-17T08:41:22.837Z,86.70
2022-08-17T08:51:39.699Z,84.97
2022-08-17T09:01:52.995Z,83.07
2022-08-17T09:12:06.287Z,80.89
2022-08-17T09:22:17.501Z,79.69
2022-08-17T09:32:25.904Z,78.15
2022-08-17T09:42:34.156Z,76.53
2022-08-17T09:52:38.402Z,75.99
2022-08-17T10:03:06.094Z,75.35
2022-08-17T10:13:16.256Z,74.62
2022-08-17T10:23:46.424Z,75.93
2022-08-17T10:34:03.290Z,75.67
2022-08-17T10:44:39.578Z,74.81
2022-08-17T10:54:48.185Z,75.51
2022-08-17T11:05:01.972Z,73.78
2022-08-17T11:15:19.553Z,76.46
2022-08-17T11:25:34.425Z,75.66
2022-08-17T11:35:48.364Z,72.11
2022-08-17T11:46:03.178Z,70.03
2022-08-17T11:56:09.821Z,67.26
2022-08-17T12:06:22.084Z,66.55
2022-08-17T12:16:34.189Z,62.10
2022-08-17T12:26:37.666Z,56.97
2022-08-17T12:36:42.310Z,61.54
2022-08-17T12:46:57.319Z,62.29
2022-08-17T12:57:07.309Z,64.11
2022-08-17T13:07:10.040Z,65.49
2022-08-17T13:17:14.242Z,65.85
2022-08-17T13:27:22.160Z,65.87
2022-08-17T13:37:30.113Z,65.59
2022-08-17T13:47:34.395Z,67.19
2022-08-17T13:57:38.500Z,68.61
2022-08-17T14:07:41.264Z,68.16
2022-08-17T14:17:45.376Z,69.82
2022-08-17T14:27:53.433Z,70.01
2022-08-17T14:37:58.228Z,71.48
2022-08-17T14:48:02.742Z,71.65
2022-08-17T14:58:09.002Z,73.91
2022-08-17T15:08:12.275Z,74.09
2022-08-17T15:18:16.917Z,75.13
2022-08-17T15:28:22.675Z,76.02
2022-08-17T15:38:27.437Z,78.27
2022-08-17T15:48:41.838Z,86.49
2022-08-17T15:58:48.222Z,88.80
2022-08-17T16:08:51.570Z,88.72
2022-08-17T16:18:58.280Z,90.53
2022-08-17T16:29:03.692Z,92.25
2022-08-17T16:39:08.098Z,92.35
2022-08-17T16:49:13.523Z,93.10
2022-08-17T16:59:41.082Z,92.98
2022-08-17T17:09:48.815Z,93.33
2022-08-17T17:20:00.540Z,93.42
2022-08-17T17:30:11.600Z,93.28
2022-08-17T17:40:20.367Z,92.82
2022-08-17T17:50:29.960Z,92.60
2022-08-17T18:00:40.381Z,92.75
2022-08-17T18:10:51.189Z,92.30
2022-08-17T18:21:04.836Z,92.24
2022-08-17T18:31:13.825Z,92.30
2022-08-17T18:41:26.156Z,92.14
2022-08-17T18:51:40.816Z,91.71
2022-08-17T19:02:10.027Z,91.85
2022-08-17T19:12:27.666Z,92.29
2022-08-17T19:22:40.380Z,91.80
2022-08-17T19:32:43.232Z,91.51
2022-08-17T19:42:57.058Z,91.98
2022-08-17T19:53:09.433Z,91.94
2022-08-17T20:03:18.529Z,91.74
2022-08-17T20:13:32.845Z,91.79
2022-08-17T20:23:49.686Z,91.92
2022-08-17T20:33:52.433Z,92.01
2022-08-17T20:44:31.812Z,92.53
2022-08-17T20:54:46.502Z,93.60
2022-08-17T21:05:04.033Z,92.99
2022-08-17T21:15:30.573Z,92.96
2022-08-17T21:26:17.272Z,93.00
2022-08-17T21:36:27.496Z,92.78
2022-08-17T21:46:36.798Z,92.86
2022-08-17T21:56:40.825Z,93.95
2022-08-17T22:06:52.276Z,92.96
2022-08-17T22:17:14.561Z,93.40
2022-08-17T22:27:19.369Z,93.48
2022-08-17T22:37:28.741Z,93.51
2022-08-17T22:47:38.704Z,93.74
2022-08-17T22:58:03.502Z,94.33
2022-08-17T23:08:07.776Z,91.93
2022-08-17T23:18:10.537Z,91.88
2022-08-17T23:28:14.622Z,92.35
2022-08-17T23:38:17.329Z,92.01
2022-08-17T23:48:35.044Z,92.35
2022-08-17T23:58:42.000Z,92.52
